sensor_id;sensor_type;location;lat;lon;timestamp;temperature;humidity
20735;DHT22;10528;52.124;5.196;2024-01-27T00:00:26;5.80;99.90
20735;DHT22;10528;52.124;5.196;2024-01-27T00:02:53;5.70;99.90
20735;DHT22;10528;52.124;5.196;2024-01-27T00:05:20;5.60;99.90
20735;DHT22;10528;52.124;5.196;2024-01-27T00:07:47;5.50;99.90
20735;DHT22;10528;52.124;5.196;2024-01-27T00:10:14;5.60;99.90
20735;DHT22;10528;52.124;5.196;2024-01-27T00:12:41;5.50;99.90
20735;DHT22;10528;52.124;5.196;2024-01-27T00:15:08;5.40;99.90
20735;DHT22;10528;52.124;5.196;2024-01-27T00:17:35;5.40;99.90
20735;DHT22;10528;52.124;5.196;2024-01-27T00:20:03;5.40;99.90
20735;DHT22;10528;52.124;5.196;2024-01-27T00:22:30;5.30;99.90
20735;DHT22;10528;52.124;5.196;2024-01-27T00:24:57;5.30;99.90
20735;DHT22;10528;52.124;5.196;2024-01-27T00:27:24;5.20;99.90
20735;DHT22;10528;52.124;5.196;2024-01-27T00:29:51;5.20;99.90
20735;DHT22;10528;52.124;5.196;2024-01-27T00:32:18;5.20;99.90
20735;DHT22;10528;52.124;5.196;2024-01-27T00:34:45;5.10;99.90
20735;DHT22;10528;52.124;5.196;2024-01-27T00:37:12;5.10;99.90
20735;DHT22;10528;52.124;5.196;2024-01-27T00:39:39;5.10;99.90
20735;DHT22;10528;52.124;5.196;2024-01-27T00:42:07;5.10;99.90
20735;DHT22;10528;52.124;5.196;2024-01-27T00:44:34;5.00;99.90
20735;DHT22;10528;52.124;5.196;2024-01-27T00:47:02;5.00;99.90
20735;DHT22;10528;52.124;5.196;2024-01-27T00:49:29;5.00;99.90
20735;DHT22;10528;52.124;5.196;2024-01-27T00:51:57;5.00;99.90
20735;DHT22;10528;52.124;5.196;2024-01-27T00:54:24;5.00;99.90
20735;DHT22;10528;52.124;5.196;2024-01-27T00:56:52;5.00;99.90
20735;DHT22;10528;52.124;5.196;2024-01-27T00:59:19;5.00;99.90
20735;DHT22;10528;52.124;5.196;2024-01-27T01:01:46;5.00;99.90
20735;DHT22;10528;52.124;5.196;2024-01-27T01:04:13;5.00;99.90
20735;DHT22;10528;52.124;5.196;2024-01-27T01:06:40;5.00;99.90
20735;DHT22;10528;52.124;5.196;2024-01-27T01:09:07;5.00;99.90
20735;DHT22;10528;52.124;5.196;2024-01-27T01:11:35;5.00;99.90
20735;DHT22;10528;52.124;5.196;2024-01-27T01:14:06;5.00;99.90
20735;DHT22;10528;52.124;5.196;2024-01-27T01:16:33;5.00;99.90
20735;DHT22;10528;52.124;5.196;2024-01-27T01:18:59;5.00;99.90
20735;DHT22;10528;52.124;5.196;2024-01-27T01:21:26;5.00;99.90
20735;DHT22;10528;52.124;5.196;2024-01-27T01:23:55;5.00;99.90
20735;DHT22;10528;52.124;5.196;2024-01-27T01:26:22;4.90;99.90
20735;DHT22;10528;52.124;5.196;2024-01-27T01:28:49;4.90;99.90
20735;DHT22;10528;52.124;5.196;2024-01-27T01:31:16;4.80;99.90
20735;DHT22;10528;52.124;5.196;2024-01-27T01:33:43;4.80;99.90
20735;DHT22;10528;52.124;5.196;2024-01-27T01:36:11;4.90;99.90
20735;DHT22;10528;52.124;5.196;2024-01-27T01:38:38;4.90;99.90
20735;DHT22;10528;52.124;5.196;2024-01-27T01:41:05;4.80;99.90
20735;DHT22;10528;52.124;5.196;2024-01-27T01:43:32;4.80;99.90
20735;DHT22;10528;52.124;5.196;2024-01-27T01:45:59;4.70;99.90
20735;DHT22;10528;52.124;5.196;2024-01-27T01:48:26;4.70;99.90
20735;DHT22;10528;52.124;5.196;2024-01-27T01:50:53;4.60;99.90
20735;DHT22;10528;52.124;5.196;2024-01-27T01:53:21;4.50;99.90
20735;DHT22;10528;52.124;5.196;2024-01-27T01:55:49;4.60;99.90
20735;DHT22;10528;52.124;5.196;2024-01-27T01:58:17;4.60;99.90
20735;DHT22;10528;52.124;5.196;2024-01-27T02:00:44;4.70;99.90
20735;DHT22;10528;52.124;5.196;2024-01-27T02:03:12;4.70;99.90
20735;DHT22;10528;52.124;5.196;2024-01-27T02:05:40;4.70;99.90
20735;DHT22;10528;52.124;5.196;2024-01-27T02:08:07;4.70;99.90
20735;DHT22;10528;52.124;5.196;2024-01-27T02:10:35;4.70;99.90
20735;DHT22;10528;52.124;5.196;2024-01-27T02:15:48;4.70;99.90
20735;DHT22;10528;52.124;5.196;2024-01-27T02:18:16;4.70;99.90
20735;DHT22;10528;52.124;5.196;2024-01-27T02:20:43;4.70;99.90
20735;DHT22;10528;52.124;5.196;2024-01-27T02:23:10;4.80;99.90
20735;DHT22;10528;52.124;5.196;2024-01-27T02:25:37;4.80;99.90
20735;DHT22;10528;52.124;5.196;2024-01-27T02:28:04;4.80;99.90
20735;DHT22;10528;52.124;5.196;2024-01-27T02:30:32;4.70;99.90
20735;DHT22;10528;52.124;5.196;2024-01-27T02:32:59;4.60;99.90
20735;DHT22;10528;52.124;5.196;2024-01-27T02:35:26;4.50;99.90
20735;DHT22;10528;52.124;5.196;2024-01-27T02:37:53;4.50;99.90
20735;DHT22;10528;52.124;5.196;2024-01-27T02:40:20;4.40;99.90
20735;DHT22;10528;52.124;5.196;2024-01-27T02:42:46;4.40;99.90
20735;DHT22;10528;52.124;5.196;2024-01-27T02:45:13;4.50;99.90
20735;DHT22;10528;52.124;5.196;2024-01-27T02:47:41;4.50;99.90
20735;DHT22;10528;52.124;5.196;2024-01-27T02:50:08;4.50;99.90
20735;DHT22;10528;52.124;5.196;2024-01-27T02:52:35;4.30;99.90
20735;DHT22;10528;52.124;5.196;2024-01-27T02:55:02;4.40;99.90
20735;DHT22;10528;52.124;5.196;2024-01-27T02:57:30;4.40;99.90
20735;DHT22;10528;52.124;5.196;2024-01-27T02:59:57;4.30;99.90
20735;DHT22;10528;52.124;5.196;2024-01-27T03:02:24;4.40;99.90
20735;DHT22;10528;52.124;5.196;2024-01-27T03:04:51;4.40;99.90
20735;DHT22;10528;52.124;5.196;2024-01-27T03:07:18;4.40;99.90
20735;DHT22;10528;52.124;5.196;2024-01-27T03:09:45;4.30;99.90
20735;DHT22;10528;52.124;5.196;2024-01-27T03:12:12;4.30;99.90
20735;DHT22;10528;52.124;5.196;2024-01-27T03:14:39;4.20;99.90
20735;DHT22;10528;52.124;5.196;2024-01-27T03:17:06;4.20;99.90
20735;DHT22;10528;52.124;5.196;2024-01-27T03:19:33;4.00;99.90
20735;DHT22;10528;52.124;5.196;2024-01-27T03:22:01;4.00;99.90
20735;DHT22;10528;52.124;5.196;2024-01-27T03:24:28;4.00;99.90
20735;DHT22;10528;52.124;5.196;2024-01-27T03:26:55;4.00;99.90
20735;DHT22;10528;52.124;5.196;2024-01-27T03:29:22;4.00;99.90
20735;DHT22;10528;52.124;5.196;2024-01-27T03:31:49;4.00;99.90
20735;DHT22;10528;52.124;5.196;2024-01-27T03:34:16;4.00;99.90
20735;DHT22;10528;52.124;5.196;2024-01-27T03:36:48;3.90;99.90
20735;DHT22;10528;52.124;5.196;2024-01-27T03:39:15;3.80;99.90
20735;DHT22;10528;52.124;5.196;2024-01-27T03:41:42;3.80;99.90
20735;DHT22;10528;52.124;5.196;2024-01-27T03:44:09;3.70;99.90
20735;DHT22;10528;52.124;5.196;2024-01-27T03:46:36;3.60;99.90
20735;DHT22;10528;52.124;5.196;2024-01-27T03:49:05;3.70;99.90
20735;DHT22;10528;52.124;5.196;2024-01-27T03:51:33;3.60;99.90
20735;DHT22;10528;52.124;5.196;2024-01-27T03:54:00;3.50;99.90
20735;DHT22;10528;52.124;5.196;2024-01-27T03:56:26;3.50;99.90
20735;DHT22;10528;52.124;5.196;2024-01-27T03:58:53;3.50;99.90
20735;DHT22;10528;52.124;5.196;2024-01-27T04:01:21;3.50;99.90
20735;DHT22;10528;52.124;5.196;2024-01-27T04:03:48;3.60;99.90
20735;DHT22;10528;52.124;5.196;2024-01-27T04:06:15;3.70;99.90
20735;DHT22;10528;52.124;5.196;2024-01-27T04:08:41;3.80;99.90
20735;DHT22;10528;52.124;5.196;2024-01-27T04:11:23;3.90;99.90
20735;DHT22;10528;52.124;5.196;2024-01-27T04:13:50;3.80;99.90
20735;DHT22;10528;52.124;5.196;2024-01-27T04:16:17;3.80;99.90
20735;DHT22;10528;52.124;5.196;2024-01-27T04:18:44;3.80;99.90
20735;DHT22;10528;52.124;5.196;2024-01-27T04:21:13;3.80;99.90
20735;DHT22;10528;52.124;5.196;2024-01-27T04:23:40;3.70;99.90
20735;DHT22;10528;52.124;5.196;2024-01-27T04:26:07;3.80;99.90
20735;DHT22;10528;52.124;5.196;2024-01-27T04:28:36;3.90;99.90
20735;DHT22;10528;52.124;5.196;2024-01-27T04:31:03;3.90;99.90
20735;DHT22;10528;52.124;5.196;2024-01-27T04:33:30;3.90;99.90
20735;DHT22;10528;52.124;5.196;2024-01-27T04:35:58;3.80;99.90
20735;DHT22;10528;52.124;5.196;2024-01-27T04:38:25;3.70;99.90
20735;DHT22;10528;52.124;5.196;2024-01-27T04:40:52;3.60;99.90
20735;DHT22;10528;52.124;5.196;2024-01-27T04:43:19;3.50;99.90
20735;DHT22;10528;52.124;5.196;2024-01-27T04:45:48;3.50;99.90
20735;DHT22;10528;52.124;5.196;2024-01-27T04:48:16;3.40;99.90
20735;DHT22;10528;52.124;5.196;2024-01-27T04:50:43;3.40;99.90
20735;DHT22;10528;52.124;5.196;2024-01-27T04:53:10;3.30;99.90
20735;DHT22;10528;52.124;5.196;2024-01-27T04:55:37;3.20;99.90
20735;DHT22;10528;52.124;5.196;2024-01-27T04:58:04;3.10;99.90
20735;DHT22;10528;52.124;5.196;2024-01-27T05:00:34;3.10;99.90
20735;DHT22;10528;52.124;5.196;2024-01-27T05:03:01;3.10;99.90
20735;DHT22;10528;52.124;5.196;2024-01-27T05:05:32;3.10;99.90
20735;DHT22;10528;52.124;5.196;2024-01-27T05:08:03;3.20;99.90
20735;DHT22;10528;52.124;5.196;2024-01-27T05:10:30;3.10;99.90
20735;DHT22;10528;52.124;5.196;2024-01-27T05:12:57;2.90;99.90
20735;DHT22;10528;52.124;5.196;2024-01-27T05:15:24;3.00;99.90
20735;DHT22;10528;52.124;5.196;2024-01-27T05:17:51;3.10;99.90
20735;DHT22;10528;52.124;5.196;2024-01-27T05:20:19;3.30;99.90
20735;DHT22;10528;52.124;5.196;2024-01-27T05:22:46;3.40;99.90
20735;DHT22;10528;52.124;5.196;2024-01-27T05:25:13;3.10;99.90
20735;DHT22;10528;52.124;5.196;2024-01-27T05:27:40;3.00;99.90
20735;DHT22;10528;52.124;5.196;2024-01-27T05:30:08;3.00;99.90
20735;DHT22;10528;52.124;5.196;2024-01-27T05:32:36;3.10;99.90
20735;DHT22;10528;52.124;5.196;2024-01-27T05:35:03;3.10;99.90
20735;DHT22;10528;52.124;5.196;2024-01-27T05:37:31;3.20;99.90
20735;DHT22;10528;52.124;5.196;2024-01-27T05:39:58;3.20;99.90
20735;DHT22;10528;52.124;5.196;2024-01-27T05:42:25;3.10;99.90
20735;DHT22;10528;52.124;5.196;2024-01-27T05:44:52;3.10;99.90
20735;DHT22;10528;52.124;5.196;2024-01-27T05:47:19;3.30;99.90
20735;DHT22;10528;52.124;5.196;2024-01-27T05:49:46;3.40;99.90
20735;DHT22;10528;52.124;5.196;2024-01-27T05:52:13;3.40;99.90
20735;DHT22;10528;52.124;5.196;2024-01-27T05:54:51;3.40;99.90
20735;DHT22;10528;52.124;5.196;2024-01-27T05:57:19;3.30;99.90
20735;DHT22;10528;52.124;5.196;2024-01-27T05:59:47;3.20;99.90
20735;DHT22;10528;52.124;5.196;2024-01-27T06:02:14;3.30;99.90
20735;DHT22;10528;52.124;5.196;2024-01-27T06:04:41;3.30;99.90
20735;DHT22;10528;52.124;5.196;2024-01-27T06:07:08;3.40;99.90
20735;DHT22;10528;52.124;5.196;2024-01-27T06:09:37;3.30;99.90
20735;DHT22;10528;52.124;5.196;2024-01-27T06:12:05;3.10;99.90
20735;DHT22;10528;52.124;5.196;2024-01-27T06:14:32;3.20;99.90
20735;DHT22;10528;52.124;5.196;2024-01-27T06:17:00;3.10;99.90
20735;DHT22;10528;52.124;5.196;2024-01-27T06:19:29;3.10;99.90
20735;DHT22;10528;52.124;5.196;2024-01-27T06:21:56;3.20;99.90
20735;DHT22;10528;52.124;5.196;2024-01-27T06:24:23;3.30;99.90
20735;DHT22;10528;52.124;5.196;2024-01-27T06:26:50;3.10;99.90
20735;DHT22;10528;52.124;5.196;2024-01-27T06:29:17;3.00;99.90
20735;DHT22;10528;52.124;5.196;2024-01-27T06:31:45;3.00;99.90
20735;DHT22;10528;52.124;5.196;2024-01-27T06:34:12;2.90;99.90
20735;DHT22;10528;52.124;5.196;2024-01-27T06:36:39;3.00;99.90
20735;DHT22;10528;52.124;5.196;2024-01-27T06:39:06;2.90;99.90
20735;DHT22;10528;52.124;5.196;2024-01-27T06:41:34;2.80;99.90
20735;DHT22;10528;52.124;5.196;2024-01-27T06:44:01;2.60;99.90
20735;DHT22;10528;52.124;5.196;2024-01-27T06:46:28;2.60;99.90
20735;DHT22;10528;52.124;5.196;2024-01-27T06:48:55;2.60;99.90
20735;DHT22;10528;52.124;5.196;2024-01-27T06:51:22;2.60;99.90
20735;DHT22;10528;52.124;5.196;2024-01-27T06:53:49;2.60;99.90
20735;DHT22;10528;52.124;5.196;2024-01-27T06:56:16;2.50;99.90
20735;DHT22;10528;52.124;5.196;2024-01-27T06:58:43;2.40;99.90
20735;DHT22;10528;52.124;5.196;2024-01-27T07:01:10;2.40;99.90
20735;DHT22;10528;52.124;5.196;2024-01-27T07:03:37;2.40;99.90
20735;DHT22;10528;52.124;5.196;2024-01-27T07:06:06;2.30;99.90
20735;DHT22;10528;52.124;5.196;2024-01-27T07:08:33;2.30;99.90
20735;DHT22;10528;52.124;5.196;2024-01-27T07:11:04;2.30;99.90
20735;DHT22;10528;52.124;5.196;2024-01-27T07:13:31;2.40;99.90
20735;DHT22;10528;52.124;5.196;2024-01-27T07:15:58;2.50;99.90
20735;DHT22;10528;52.124;5.196;2024-01-27T07:18:25;2.60;99.90
20735;DHT22;10528;52.124;5.196;2024-01-27T07:20:53;2.70;99.90
20735;DHT22;10528;52.124;5.196;2024-01-27T07:23:21;2.70;99.90
20735;DHT22;10528;52.124;5.196;2024-01-27T07:25:48;2.80;99.90
20735;DHT22;10528;52.124;5.196;2024-01-27T07:28:15;2.90;99.90
20735;DHT22;10528;52.124;5.196;2024-01-27T07:30:45;2.90;99.90
20735;DHT22;10528;52.124;5.196;2024-01-27T07:33:12;3.00;99.90
20735;DHT22;10528;52.124;5.196;2024-01-27T07:35:39;3.10;99.90
20735;DHT22;10528;52.124;5.196;2024-01-27T07:38:07;3.10;99.90
20735;DHT22;10528;52.124;5.196;2024-01-27T07:40:35;3.10;99.90
20735;DHT22;10528;52.124;5.196;2024-01-27T07:43:02;3.20;99.90
20735;DHT22;10528;52.124;5.196;2024-01-27T07:45:30;3.20;99.90
20735;DHT22;10528;52.124;5.196;2024-01-27T07:47:57;3.20;99.90
20735;DHT22;10528;52.124;5.196;2024-01-27T07:50:27;3.10;99.90
20735;DHT22;10528;52.124;5.196;2024-01-27T07:52:54;3.10;99.90
20735;DHT22;10528;52.124;5.196;2024-01-27T07:55:21;3.10;99.90
20735;DHT22;10528;52.124;5.196;2024-01-27T07:57:48;3.20;99.90
20735;DHT22;10528;52.124;5.196;2024-01-27T08:00:15;3.30;99.90
20735;DHT22;10528;52.124;5.196;2024-01-27T08:02:43;3.30;99.90
20735;DHT22;10528;52.124;5.196;2024-01-27T08:05:10;3.30;99.90
20735;DHT22;10528;52.124;5.196;2024-01-27T08:07:37;3.40;99.90
20735;DHT22;10528;52.124;5.196;2024-01-27T08:10:04;3.40;99.90
20735;DHT22;10528;52.124;5.196;2024-01-27T08:12:31;3.50;99.90
20735;DHT22;10528;52.124;5.196;2024-01-27T08:14:59;3.60;99.90
20735;DHT22;10528;52.124;5.196;2024-01-27T08:17:26;3.60;99.90
20735;DHT22;10528;52.124;5.196;2024-01-27T08:19:53;3.70;99.90
20735;DHT22;10528;52.124;5.196;2024-01-27T08:22:20;3.70;99.90
20735;DHT22;10528;52.124;5.196;2024-01-27T08:24:47;3.80;99.90
20735;DHT22;10528;52.124;5.196;2024-01-27T08:27:14;3.90;99.90
20735;DHT22;10528;52.124;5.196;2024-01-27T08:29:41;4.00;99.90
20735;DHT22;10528;52.124;5.196;2024-01-27T08:32:08;4.10;99.90
20735;DHT22;10528;52.124;5.196;2024-01-27T08:34:36;4.00;99.90
20735;DHT22;10528;52.124;5.196;2024-01-27T08:37:20;4.20;99.90
20735;DHT22;10528;52.124;5.196;2024-01-27T08:39:47;4.40;99.90
20735;DHT22;10528;52.124;5.196;2024-01-27T08:42:14;4.40;99.90
20735;DHT22;10528;52.124;5.196;2024-01-27T08:44:41;4.40;99.90
20735;DHT22;10528;52.124;5.196;2024-01-27T08:47:08;4.40;99.90
20735;DHT22;10528;52.124;5.196;2024-01-27T08:49:35;4.50;99.90
20735;DHT22;10528;52.124;5.196;2024-01-27T08:52:02;4.60;99.90
20735;DHT22;10528;52.124;5.196;2024-01-27T08:54:30;4.60;99.90
20735;DHT22;10528;52.124;5.196;2024-01-27T08:56:57;4.70;99.90
20735;DHT22;10528;52.124;5.196;2024-01-27T08:59:24;4.80;99.90
20735;DHT22;10528;52.124;5.196;2024-01-27T09:01:51;4.90;99.90
20735;DHT22;10528;52.124;5.196;2024-01-27T09:04:18;4.90;99.90
20735;DHT22;10528;52.124;5.196;2024-01-27T09:06:45;5.00;99.90
20735;DHT22;10528;52.124;5.196;2024-01-27T09:09:12;5.10;99.90
20735;DHT22;10528;52.124;5.196;2024-01-27T09:11:40;5.20;99.90
20735;DHT22;10528;52.124;5.196;2024-01-27T09:14:07;5.20;99.90
20735;DHT22;10528;52.124;5.196;2024-01-27T09:16:34;5.20;99.90
20735;DHT22;10528;52.124;5.196;2024-01-27T09:19:01;5.30;99.90
20735;DHT22;10528;52.124;5.196;2024-01-27T09:21:29;5.30;99.90
20735;DHT22;10528;52.124;5.196;2024-01-27T09:23:58;5.40;99.90
20735;DHT22;10528;52.124;5.196;2024-01-27T09:26:25;5.50;99.90
20735;DHT22;10528;52.124;5.196;2024-01-27T09:28:52;5.50;99.90
20735;DHT22;10528;52.124;5.196;2024-01-27T09:31:22;5.60;99.90
20735;DHT22;10528;52.124;5.196;2024-01-27T09:33:51;5.80;99.90
20735;DHT22;10528;52.124;5.196;2024-01-27T09:36:20;5.80;99.90
20735;DHT22;10528;52.124;5.196;2024-01-27T09:38:47;5.90;99.90
20735;DHT22;10528;52.124;5.196;2024-01-27T09:41:15;5.90;99.90
20735;DHT22;10528;52.124;5.196;2024-01-27T09:43:44;6.00;99.90
20735;DHT22;10528;52.124;5.196;2024-01-27T09:46:13;6.20;99.90
20735;DHT22;10528;52.124;5.196;2024-01-27T09:48:41;6.20;99.90
20735;DHT22;10528;52.124;5.196;2024-01-27T09:51:10;6.30;99.90
20735;DHT22;10528;52.124;5.196;2024-01-27T09:53:37;6.50;99.90
20735;DHT22;10528;52.124;5.196;2024-01-27T09:56:05;6.70;99.90
20735;DHT22;10528;52.124;5.196;2024-01-27T09:58:33;6.70;99.90
20735;DHT22;10528;52.124;5.196;2024-01-27T10:01:00;6.80;99.90
20735;DHT22;10528;52.124;5.196;2024-01-27T10:03:29;6.90;99.90
20735;DHT22;10528;52.124;5.196;2024-01-27T10:05:57;7.00;99.90
20735;DHT22;10528;52.124;5.196;2024-01-27T10:08:25;7.10;99.90
20735;DHT22;10528;52.124;5.196;2024-01-27T10:10:55;7.20;99.90
20735;DHT22;10528;52.124;5.196;2024-01-27T10:13:23;7.30;99.90
20735;DHT22;10528;52.124;5.196;2024-01-27T10:18:35;7.60;99.90
20735;DHT22;10528;52.124;5.196;2024-01-27T10:21:15;7.50;99.90
20735;DHT22;10528;52.124;5.196;2024-01-27T10:23:43;7.60;99.90
20735;DHT22;10528;52.124;5.196;2024-01-27T10:26:10;7.70;99.90
20735;DHT22;10528;52.124;5.196;2024-01-27T10:28:38;7.80;99.90
20735;DHT22;10528;52.124;5.196;2024-01-27T10:31:12;7.80;99.90
20735;DHT22;10528;52.124;5.196;2024-01-27T10:33:39;7.90;99.90
20735;DHT22;10528;52.124;5.196;2024-01-27T10:36:19;8.00;99.90
20735;DHT22;10528;52.124;5.196;2024-01-27T10:38:46;7.90;99.90
20735;DHT22;10528;52.124;5.196;2024-01-27T10:41:21;8.00;99.90
20735;DHT22;10528;52.124;5.196;2024-01-27T10:43:55;8.10;99.90
20735;DHT22;10528;52.124;5.196;2024-01-27T10:46:26;8.20;99.90
20735;DHT22;10528;52.124;5.196;2024-01-27T10:48:55;8.10;99.90
20735;DHT22;10528;52.124;5.196;2024-01-27T10:51:30;8.10;99.90
20735;DHT22;10528;52.124;5.196;2024-01-27T10:54:02;8.20;99.90
20735;DHT22;10528;52.124;5.196;2024-01-27T10:56:31;8.20;99.90
20735;DHT22;10528;52.124;5.196;2024-01-27T10:59:04;8.30;99.90
20735;DHT22;10528;52.124;5.196;2024-01-27T11:01:37;8.30;99.90
20735;DHT22;10528;52.124;5.196;2024-01-27T11:04:05;8.40;99.90
20735;DHT22;10528;52.124;5.196;2024-01-27T11:06:34;8.40;99.90
20735;DHT22;10528;52.124;5.196;2024-01-27T11:09:02;8.50;99.90
20735;DHT22;10528;52.124;5.196;2024-01-27T11:11:32;8.50;99.90
20735;DHT22;10528;52.124;5.196;2024-01-27T11:13:59;8.40;99.90
20735;DHT22;10528;52.124;5.196;2024-01-27T11:16:26;8.40;99.90
20735;DHT22;10528;52.124;5.196;2024-01-27T11:18:55;8.70;99.90
20735;DHT22;10528;52.124;5.196;2024-01-27T11:21:23;8.70;99.90
20735;DHT22;10528;52.124;5.196;2024-01-27T11:23:50;8.60;99.90
20735;DHT22;10528;52.124;5.196;2024-01-27T11:26:20;8.60;99.90
20735;DHT22;10528;52.124;5.196;2024-01-27T11:28:49;8.60;99.90
20735;DHT22;10528;52.124;5.196;2024-01-27T11:31:18;8.60;99.90
20735;DHT22;10528;52.124;5.196;2024-01-27T11:33:50;8.50;99.90
20735;DHT22;10528;52.124;5.196;2024-01-27T11:36:24;8.60;99.90
20735;DHT22;10528;52.124;5.196;2024-01-27T11:38:52;8.50;99.90
20735;DHT22;10528;52.124;5.196;2024-01-27T11:41:27;8.50;99.90
20735;DHT22;10528;52.124;5.196;2024-01-27T11:43:59;8.60;99.90
20735;DHT22;10528;52.124;5.196;2024-01-27T11:46:26;8.50;99.90
20735;DHT22;10528;52.124;5.196;2024-01-27T11:48:53;8.50;99.90
20735;DHT22;10528;52.124;5.196;2024-01-27T11:51:21;8.60;99.90
20735;DHT22;10528;52.124;5.196;2024-01-27T11:53:50;8.60;99.90
20735;DHT22;10528;52.124;5.196;2024-01-27T11:56:17;8.70;99.90
20735;DHT22;10528;52.124;5.196;2024-01-27T11:58:48;8.70;99.90
20735;DHT22;10528;52.124;5.196;2024-01-27T12:01:16;8.60;99.90
20735;DHT22;10528;52.124;5.196;2024-01-27T12:03:44;8.70;99.90
20735;DHT22;10528;52.124;5.196;2024-01-27T12:06:12;8.60;99.90
20735;DHT22;10528;52.124;5.196;2024-01-27T12:08:44;8.60;99.90
20735;DHT22;10528;52.124;5.196;2024-01-27T12:11:14;8.60;99.90
20735;DHT22;10528;52.124;5.196;2024-01-27T12:13:44;8.70;99.90
20735;DHT22;10528;52.124;5.196;2024-01-27T12:16:11;8.50;99.90
20735;DHT22;10528;52.124;5.196;2024-01-27T12:18:38;8.60;99.90
20735;DHT22;10528;52.124;5.196;2024-01-27T12:21:05;8.50;99.90
20735;DHT22;10528;52.124;5.196;2024-01-27T12:23:32;8.40;99.90
20735;DHT22;10528;52.124;5.196;2024-01-27T12:25:59;8.40;99.90
20735;DHT22;10528;52.124;5.196;2024-01-27T12:28:26;8.50;99.90
20735;DHT22;10528;52.124;5.196;2024-01-27T12:30:54;8.50;99.90
20735;DHT22;10528;52.124;5.196;2024-01-27T12:33:21;8.60;99.90
20735;DHT22;10528;52.124;5.196;2024-01-27T12:35:52;8.60;99.90
20735;DHT22;10528;52.124;5.196;2024-01-27T12:38:22;8.70;99.90
20735;DHT22;10528;52.124;5.196;2024-01-27T12:40:49;8.60;99.90
20735;DHT22;10528;52.124;5.196;2024-01-27T12:43:15;8.60;99.90
20735;DHT22;10528;52.124;5.196;2024-01-27T12:45:42;8.60;99.90
20735;DHT22;10528;52.124;5.196;2024-01-27T12:48:09;8.60;99.90
20735;DHT22;10528;52.124;5.196;2024-01-27T12:50:36;8.60;99.90
20735;DHT22;10528;52.124;5.196;2024-01-27T12:53:11;8.70;99.90
20735;DHT22;10528;52.124;5.196;2024-01-27T12:55:37;8.70;99.90
20735;DHT22;10528;52.124;5.196;2024-01-27T12:58:04;8.80;99.90
20735;DHT22;10528;52.124;5.196;2024-01-27T13:00:31;8.70;99.90
20735;DHT22;10528;52.124;5.196;2024-01-27T13:02:58;8.60;99.90
20735;DHT22;10528;52.124;5.196;2024-01-27T13:05:25;8.70;99.90
20735;DHT22;10528;52.124;5.196;2024-01-27T13:07:52;8.70;99.90
20735;DHT22;10528;52.124;5.196;2024-01-27T13:10:19;8.70;99.90
20735;DHT22;10528;52.124;5.196;2024-01-27T13:12:46;8.70;99.90
20735;DHT22;10528;52.124;5.196;2024-01-27T13:15:13;8.60;99.90
20735;DHT22;10528;52.124;5.196;2024-01-27T13:17:41;8.50;99.90
20735;DHT22;10528;52.124;5.196;2024-01-27T13:20:09;8.60;99.90
20735;DHT22;10528;52.124;5.196;2024-01-27T13:22:36;8.60;99.90
20735;DHT22;10528;52.124;5.196;2024-01-27T13:25:03;8.60;99.90
20735;DHT22;10528;52.124;5.196;2024-01-27T13:27:34;8.60;99.90
20735;DHT22;10528;52.124;5.196;2024-01-27T13:30:02;8.60;99.90
20735;DHT22;10528;52.124;5.196;2024-01-27T13:32:29;8.50;99.90
20735;DHT22;10528;52.124;5.196;2024-01-27T13:34:56;8.40;99.90
20735;DHT22;10528;52.124;5.196;2024-01-27T13:37:23;8.50;99.90
20735;DHT22;10528;52.124;5.196;2024-01-27T13:39:51;8.50;99.90
20735;DHT22;10528;52.124;5.196;2024-01-27T13:42:19;8.50;99.90
20735;DHT22;10528;52.124;5.196;2024-01-27T13:44:46;8.50;99.90
20735;DHT22;10528;52.124;5.196;2024-01-27T13:47:13;8.60;99.90
20735;DHT22;10528;52.124;5.196;2024-01-27T13:49:40;8.60;99.90
20735;DHT22;10528;52.124;5.196;2024-01-27T13:52:08;8.60;99.90
20735;DHT22;10528;52.124;5.196;2024-01-27T13:54:35;8.60;99.90
20735;DHT22;10528;52.124;5.196;2024-01-27T13:57:02;8.60;99.90
20735;DHT22;10528;52.124;5.196;2024-01-27T13:59:30;8.60;99.90
20735;DHT22;10528;52.124;5.196;2024-01-27T14:01:58;8.50;99.90
20735;DHT22;10528;52.124;5.196;2024-01-27T14:04:25;8.50;99.90
20735;DHT22;10528;52.124;5.196;2024-01-27T14:06:52;8.60;99.90
20735;DHT22;10528;52.124;5.196;2024-01-27T14:09:20;8.60;99.90
20735;DHT22;10528;52.124;5.196;2024-01-27T14:11:48;8.60;99.90
20735;DHT22;10528;52.124;5.196;2024-01-27T14:14:15;8.50;99.90
20735;DHT22;10528;52.124;5.196;2024-01-27T14:16:44;8.50;99.90
20735;DHT22;10528;52.124;5.196;2024-01-27T14:19:11;8.60;99.90
20735;DHT22;10528;52.124;5.196;2024-01-27T14:21:39;8.50;99.90
20735;DHT22;10528;52.124;5.196;2024-01-27T14:24:09;8.40;99.90
20735;DHT22;10528;52.124;5.196;2024-01-27T14:26:36;8.50;99.90
20735;DHT22;10528;52.124;5.196;2024-01-27T14:29:04;8.40;99.90
20735;DHT22;10528;52.124;5.196;2024-01-27T14:31:31;8.40;99.90
20735;DHT22;10528;52.124;5.196;2024-01-27T14:33:58;8.40;99.90
20735;DHT22;10528;52.124;5.196;2024-01-27T14:36:25;8.40;99.90
20735;DHT22;10528;52.124;5.196;2024-01-27T14:38:53;8.40;99.90
20735;DHT22;10528;52.124;5.196;2024-01-27T14:41:20;8.40;99.90
20735;DHT22;10528;52.124;5.196;2024-01-27T14:43:47;8.40;99.90
20735;DHT22;10528;52.124;5.196;2024-01-27T14:46:17;8.40;99.90
20735;DHT22;10528;52.124;5.196;2024-01-27T14:48:44;8.40;99.90
20735;DHT22;10528;52.124;5.196;2024-01-27T14:51:12;8.40;99.90
20735;DHT22;10528;52.124;5.196;2024-01-27T14:53:40;8.50;99.90
20735;DHT22;10528;52.124;5.196;2024-01-27T14:56:07;8.40;99.90
20735;DHT22;10528;52.124;5.196;2024-01-27T14:58:34;8.40;99.90
20735;DHT22;10528;52.124;5.196;2024-01-27T15:01:01;8.40;99.90
20735;DHT22;10528;52.124;5.196;2024-01-27T15:03:28;8.40;99.90
20735;DHT22;10528;52.124;5.196;2024-01-27T15:05:55;8.40;99.90
20735;DHT22;10528;52.124;5.196;2024-01-27T15:08:25;8.40;99.90
20735;DHT22;10528;52.124;5.196;2024-01-27T15:10:52;8.40;99.90
20735;DHT22;10528;52.124;5.196;2024-01-27T15:13:20;8.40;99.90
20735;DHT22;10528;52.124;5.196;2024-01-27T15:15:50;8.40;99.90
20735;DHT22;10528;52.124;5.196;2024-01-27T15:18:17;8.30;99.90
20735;DHT22;10528;52.124;5.196;2024-01-27T15:20:44;8.30;99.90
20735;DHT22;10528;52.124;5.196;2024-01-27T15:23:11;8.30;99.90
20735;DHT22;10528;52.124;5.196;2024-01-27T15:25:39;8.30;99.90
20735;DHT22;10528;52.124;5.196;2024-01-27T15:28:06;8.20;99.90
20735;DHT22;10528;52.124;5.196;2024-01-27T15:30:34;8.30;99.90
20735;DHT22;10528;52.124;5.196;2024-01-27T15:33:01;8.20;99.90
20735;DHT22;10528;52.124;5.196;2024-01-27T15:35:29;8.20;99.90
20735;DHT22;10528;52.124;5.196;2024-01-27T15:37:59;8.20;99.90
20735;DHT22;10528;52.124;5.196;2024-01-27T15:40:26;8.10;99.90
20735;DHT22;10528;52.124;5.196;2024-01-27T15:42:53;8.10;99.90
20735;DHT22;10528;52.124;5.196;2024-01-27T15:45:21;8.00;99.90
20735;DHT22;10528;52.124;5.196;2024-01-27T15:47:48;8.00;99.90
20735;DHT22;10528;52.124;5.196;2024-01-27T15:50:15;7.90;99.90
20735;DHT22;10528;52.124;5.196;2024-01-27T15:52:43;7.90;99.90